createdAt,value
2023-04-13T00:01:23.509Z,99794.09
2023-04-13T00:04:45.261Z,99786.94
2023-04-13T00:08:09.267Z,99790.59
2023-04-13T00:11:32.070Z,99810.41
2023-04-13T00:14:53.934Z,99795.41
2023-04-13T00:18:15.764Z,99773.25
2023-04-13T00:21:37.999Z,99789.41
2023-04-13T00:25:01.451Z,99791.22
2023-04-13T00:28:24.342Z,99796.88
2023-04-13T00:31:47.298Z,99784.84
2023-04-13T00:35:10.733Z,99774.34
2023-04-13T00:38:33.171Z,99788.81
2023-04-13T00:41:56.074Z,99780.16
2023-04-13T00:45:19.181Z,99776.81
2023-04-13T00:48:41.248Z,99794.78
2023-04-13T00:52:03.855Z,99790.28
2023-04-13T00:55:25.773Z,99798.44
2023-04-13T00:58:48.610Z,99795.78
2023-04-13T01:02:10.419Z,99805.06
2023-04-13T01:05:51.797Z,99806.88
2023-04-13T01:09:19.720Z,99826.97
2023-04-13T01:12:52.703Z,99829.78
2023-04-13T01:16:21.301Z,99827.94
2023-04-13T01:19:52.214Z,99824.28
2023-04-13T01:23:28.482Z,99821.63
2023-04-13T01:27:12.323Z,99840.28
2023-04-13T01:30:37.587Z,99853.88
2023-04-13T01:34:00.101Z,99866.69
2023-04-13T01:37:25.790Z,99856.47
2023-04-13T01:40:50.762Z,99852.59
2023-04-13T01:44:14.116Z,99847.72
2023-04-13T01:47:40.662Z,99866.78
2023-04-13T01:51:24.330Z,99877.22
2023-04-13T01:54:52.166Z,99901.06
2023-04-13T01:58:15.832Z,99901.13
2023-04-13T02:01:43.535Z,99896.84
2023-04-13T02:05:09.631Z,99893.09
2023-04-13T02:08:33.623Z,99905.72
2023-04-13T02:11:55.377Z,99902.34
2023-04-13T02:15:18.275Z,99915.53
2023-04-13T02:18:41.170Z,99911.66
2023-04-13T02:22:04.091Z,99918.94
2023-04-13T02:25:25.985Z,99919.47
2023-04-13T02:28:48.153Z,99921.19
2023-04-13T02:32:10.554Z,99923.13
2023-04-13T02:35:34.444Z,99929.41
2023-04-13T02:38:58.478Z,99933.75
2023-04-13T02:42:24.187Z,99934.59
2023-04-13T02:45:46.289Z,99936.44
2023-04-13T02:49:10.760Z,99938.59
2023-04-13T02:52:39.166Z,99933.00
2023-04-13T02:56:03.052Z,99940.16
2023-04-13T02:59:25.642Z,99928.13
2023-04-13T03:02:47.699Z,99925.06
2023-04-13T03:06:12.298Z,99935.00
2023-04-13T03:09:40.946Z,99944.38
2023-04-13T03:13:05.886Z,99935.88
2023-04-13T03:16:28.326Z,99937.25
2023-04-13T03:19:52.092Z,99957.38
2023-04-13T03:23:16.395Z,99962.28
2023-04-13T03:26:39.339Z,99954.31
2023-04-13T03:30:09.039Z,99961.84
2023-04-13T03:33:40.503Z,99973.28
2023-04-13T03:37:02.867Z,99981.09
2023-04-13T03:40:25.110Z,99983.75
2023-04-13T03:43:48.071Z,99994.81
2023-04-13T03:47:11.475Z,100002.28
2023-04-13T03:50:33.071Z,100011.22
2023-04-13T03:53:55.638Z,100010.66
2023-04-13T03:57:21.416Z,100022.53
2023-04-13T04:00:44.451Z,100007.16
2023-04-13T04:04:16.278Z,100009.22
2023-04-13T04:07:38.561Z,100008.38
2023-04-13T04:11:00.929Z,100017.84
2023-04-13T04:14:24.377Z,100017.41
2023-04-13T04:17:53.424Z,100027.31
2023-04-13T04:21:21.653Z,100042.63
2023-04-13T04:24:43.447Z,100036.34
2023-04-13T04:28:06.340Z,100044.19
2023-04-13T04:31:27.881Z,100042.50
2023-04-13T04:34:53.080Z,100058.16
2023-04-13T04:38:18.611Z,100058.31
2023-04-13T04:41:40.578Z,100074.78
2023-04-13T04:45:04.629Z,100069.47
2023-04-13T04:48:31.706Z,100077.16
2023-04-13T04:51:57.491Z,100079.25
2023-04-13T04:55:21.300Z,100092.66
2023-04-13T04:58:43.594Z,100098.66
2023-04-13T05:02:06.092Z,100093.34
2023-04-13T05:05:27.815Z,100094.06
2023-04-13T05:08:49.794Z,100081.50
2023-04-13T05:12:12.851Z,100078.72
2023-04-13T05:15:38.451Z,100068.94
2023-04-13T05:19:01.220Z,100078.47
2023-04-13T05:22:42.154Z,100069.53
2023-04-13T05:26:04.196Z,100079.16
2023-04-13T05:29:27.441Z,100088.81
2023-04-13T05:32:49.171Z,100086.28
2023-04-13T05:36:11.562Z,100091.59
2023-04-13T05:39:36.312Z,100091.72
2023-04-13T05:42:57.915Z,100112.09
2023-04-13T05:46:26.146Z,100109.44
2023-04-13T05:49:48.318Z,100120.06
2023-04-13T05:53:14.049Z,100118.38
2023-04-13T05:56:42.959Z,100121.88
2023-04-13T06:00:08.041Z,100117.28
2023-04-13T06:03:43.492Z,100131.25
2023-04-13T06:07:05.886Z,100138.94
2023-04-13T06:10:28.325Z,100144.25
2023-04-13T06:13:50.096Z,100149.44
2023-04-13T06:17:11.548Z,100148.22
2023-04-13T06:20:36.026Z,100157.59
2023-04-13T06:23:58.020Z,100159.75
2023-04-13T06:27:23.809Z,100168.84
2023-04-13T06:30:45.820Z,100172.22
2023-04-13T06:34:09.699Z,100173.88
2023-04-13T06:37:34.139Z,100178.38
2023-04-13T06:41:02.332Z,100178.66
2023-04-13T06:44:27.060Z,100173.56
2023-04-13T06:47:54.568Z,100172.03
2023-04-13T06:51:16.180Z,100186.34
2023-04-13T06:54:39.562Z,100189.28
2023-04-13T06:58:14.353Z,100190.41
2023-04-13T07:01:36.823Z,100197.28
2023-04-13T07:04:59.568Z,100200.66
2023-04-13T07:08:22.949Z,100203.75
2023-04-13T07:11:46.254Z,100218.59
2023-04-13T07:15:10.731Z,100213.00
2023-04-13T07:18:33.475Z,100230.19
2023-04-13T07:21:55.012Z,100234.41
2023-04-13T07:25:17.059Z,100241.84
2023-04-13T07:28:41.631Z,100236.94
2023-04-13T07:32:08.489Z,100234.03
2023-04-13T07:35:32.074Z,100225.53
2023-04-13T07:38:55.342Z,100223.13
2023-04-13T07:42:17.516Z,100225.53
2023-04-13T07:45:45.972Z,100226.91
2023-04-13T07:49:07.850Z,100227.19
2023-04-13T07:52:31.588Z,100221.47
2023-04-13T07:55:53.561Z,100230.16
2023-04-13T07:59:15.884Z,100245.72
2023-04-13T08:02:41.665Z,100247.50
2023-04-13T08:06:08.424Z,100255.38
2023-04-13T08:09:32.926Z,100248.50
2023-04-13T08:12:54.687Z,100254.22
2023-04-13T08:16:17.005Z,100259.97
2023-04-13T08:19:40.586Z,100263.63
2023-04-13T08:23:05.679Z,100264.31
2023-04-13T08:26:27.716Z,100267.41
2023-04-13T08:29:56.657Z,100262.63
2023-04-13T08:33:18.577Z,100255.34
2023-04-13T08:36:41.739Z,100255.09
2023-04-13T08:40:07.742Z,100259.00
2023-04-13T08:43:30.788Z,100276.81
2023-04-13T08:46:53.558Z,100285.50
2023-04-13T08:50:23.904Z,100283.94
2023-04-13T08:53:49.896Z,100292.22
2023-04-13T08:57:17.914Z,100296.25
2023-04-13T09:00:41.736Z,100288.69
2023-04-13T09:04:10.604Z,100289.28
2023-04-13T09:07:37.097Z,100291.22
2023-04-13T09:11:06.745Z,100295.84
2023-04-13T09:14:29.222Z,100299.06
2023-04-13T09:17:50.849Z,100307.34
2023-04-13T09:21:14.905Z,100307.50
2023-04-13T09:24:40.986Z,100298.25
2023-04-13T09:28:08.619Z,100295.16
2023-04-13T09:31:33.829Z,100296.00
2023-04-13T09:35:00.012Z,100295.31
2023-04-13T09:38:32.790Z,100297.53
2023-04-13T09:41:54.923Z,100303.72
2023-04-13T09:45:17.861Z,100310.84
2023-04-13T09:48:40.124Z,100310.56
2023-04-13T09:52:01.995Z,100317.63
2023-04-13T09:55:24.350Z,100315.09
2023-04-13T09:58:48.264Z,100308.50
2023-04-13T10:02:13.213Z,100309.75
2023-04-13T10:05:47.354Z,100316.88
2023-04-13T10:09:21.223Z,100314.38
2023-04-13T10:12:47.460Z,100317.44
2023-04-13T10:16:33.882Z,100319.97
2023-04-13T10:20:07.748Z,100316.19
2023-04-13T10:23:32.082Z,100312.53
2023-04-13T10:26:55.241Z,100310.97
2023-04-13T10:30:18.713Z,100316.41
2023-04-13T10:33:49.512Z,100317.81
2023-04-13T10:37:21.539Z,100320.63
2023-04-13T10:40:44.752Z,100319.09
2023-04-13T10:44:08.026Z,100333.09
2023-04-13T10:47:38.044Z,100330.88
2023-04-13T10:51:00.480Z,100330.81
2023-04-13T10:54:27.017Z,100330.09
2023-04-13T10:57:48.619Z,100329.22
2023-04-13T11:01:11.777Z,100325.66
2023-04-13T11:04:34.138Z,100332.81
2023-04-13T11:07:56.496Z,100336.31
2023-04-13T11:11:27.148Z,100337.16
2023-04-13T11:14:49.746Z,100344.56
2023-04-13T11:18:11.858Z,100345.66
2023-04-13T11:21:35.468Z,100349.41
2023-04-13T11:25:08.985Z,100350.94
2023-04-13T11:28:40.409Z,100364.28
2023-04-13T11:32:02.162Z,100363.00
2023-04-13T11:35:24.688Z,100367.59
2023-04-13T11:38:49.776Z,100383.00
2023-04-13T11:42:11.441Z,100372.03
2023-04-13T11:45:35.675Z,100375.53
2023-04-13T11:48:58.157Z,100389.28
2023-04-13T11:52:20.743Z,100376.78
2023-04-13T11:55:52.776Z,100370.75
2023-04-13T11:59:15.982Z,100381.16
2023-04-13T12:02:54.659Z,100380.88
2023-04-13T12:06:24.296Z,100385.38
2023-04-13T12:17:01.415Z,100396.44
2023-04-13T12:20:20.439Z,100391.41
2023-04-13T12:23:53.337Z,100383.31
2023-04-13T12:27:18.947Z,100392.94
2023-04-13T12:30:40.865Z,100395.09
2023-04-13T12:34:02.228Z,100382.34
2023-04-13T12:37:25.360Z,100386.41
2023-04-13T12:40:46.960Z,100381.59
2023-04-13T12:44:10.487Z,100375.94
2023-04-13T12:47:32.190Z,100373.81
2023-04-13T12:50:54.728Z,100382.34
2023-04-13T12:54:18.067Z,100386.13
2023-04-13T12:57:40.506Z,100382.75
2023-04-13T13:01:02.877Z,100383.59
2023-04-13T13:04:25.048Z,100384.44
2023-04-13T13:07:46.628Z,100383.06
2023-04-13T13:11:10.022Z,100378.41
2023-04-13T13:14:32.404Z,100384.94
2023-04-13T13:17:54.305Z,100379.84
2023-04-13T13:21:16.020Z,100382.25
2023-04-13T13:24:39.161Z,100388.53
2023-04-13T13:28:14.158Z,100374.22
2023-04-13T13:31:37.099Z,100369.94
2023-04-13T13:34:59.011Z,100375.34
2023-04-13T13:38:20.842Z,100369.19
2023-04-13T13:41:42.177Z,100373.41
2023-04-13T13:45:06.496Z,100374.41
2023-04-13T13:48:28.377Z,100374.63
2023-04-13T13:51:59.455Z,100386.00
2023-04-13T13:55:24.017Z,100386.03
2023-04-13T13:58:45.756Z,100396.00
2023-04-13T14:02:09.727Z,100397.13
2023-04-13T14:05:32.229Z,100394.75
2023-04-13T14:08:55.830Z,100391.22
2023-04-13T14:12:17.503Z,100396.25
2023-04-13T14:15:38.851Z,100393.66
2023-04-13T14:19:02.427Z,100392.31
2023-04-13T14:22:24.628Z,100389.19
2023-04-13T14:25:46.432Z,100391.75
2023-04-13T14:29:09.020Z,100389.63
2023-04-13T14:32:31.194Z,100395.66
2023-04-13T14:35:54.453Z,100399.34
2023-04-13T14:39:16.919Z,100404.69
2023-04-13T14:42:38.341Z,100399.69
2023-04-13T14:46:00.411Z,100380.97
2023-04-13T14:49:22.080Z,100382.03
2023-04-13T14:52:46.252Z,100396.78
2023-04-13T14:56:08.469Z,100396.31
2023-04-13T14:59:29.898Z,100405.00
2023-04-13T15:02:52.488Z,100404.69
2023-04-13T15:06:14.842Z,100401.53
2023-04-13T15:09:40.258Z,100420.78
2023-04-13T15:13:03.689Z,100406.56
2023-04-13T15:16:25.618Z,100414.41
2023-04-13T15:19:47.473Z,100420.63
2023-04-13T15:23:09.530Z,100426.13
2023-04-13T15:26:38.507Z,100431.16
2023-04-13T15:30:03.142Z,100428.53
2023-04-13T15:33:25.341Z,100423.66
2023-04-13T15:36:47.187Z,100434.19
2023-04-13T15:40:10.682Z,100442.41
2023-04-13T15:43:33.726Z,100443.56
2023-04-13T15:46:55.473Z,100447.44
2023-04-13T15:50:18.435Z,100449.44
2023-04-13T15:53:40.118Z,100452.94
2023-04-13T15:57:02.452Z,100444.91
2023-04-13T16:00:26.270Z,100457.47
2023-04-13T16:03:48.263Z,100455.78
2023-04-13T16:07:13.756Z,100467.00
2023-04-13T16:10:37.193Z,100462.16
2023-04-13T16:14:07.100Z,100461.84
2023-04-13T16:17:34.549Z,100466.38
2023-04-13T16:20:57.970Z,100472.13
2023-04-13T16:24:21.095Z,100476.13
2023-04-13T16:27:42.782Z,100477.47
2023-04-13T16:31:04.803Z,100488.88
2023-04-13T16:34:29.052Z,100486.06
2023-04-13T16:37:50.541Z,100483.84
2023-04-13T16:41:12.353Z,100481.34
2023-04-13T16:44:34.539Z,100497.63
2023-04-13T16:47:57.803Z,100493.75
2023-04-13T16:51:20.994Z,100484.56
2023-04-13T16:54:44.428Z,100498.63
2023-04-13T16:58:07.457Z,100501.66
2023-04-13T17:01:30.837Z,100512.88
2023-04-13T17:04:54.607Z,100514.22
2023-04-13T17:08:17.873Z,100518.22
2023-04-13T17:11:39.253Z,100520.06
2023-04-13T17:15:01.079Z,100525.22
2023-04-13T17:18:25.863Z,100532.19
2023-04-13T17:21:47.577Z,100535.53
2023-04-13T17:25:11.349Z,100529.97
2023-04-13T17:28:33.414Z,100543.19
2023-04-13T17:31:54.949Z,100547.34
2023-04-13T17:35:18.597Z,100556.69
2023-04-13T17:38:40.643Z,100552.81
2023-04-13T17:42:03.847Z,100552.78
2023-04-13T17:45:25.329Z,100559.41
2023-04-13T17:48:46.662Z,100560.84
2023-04-13T17:52:09.603Z,100561.25
2023-04-13T17:55:31.551Z,100564.00
2023-04-13T17:58:54.948Z,100563.28
2023-04-13T18:02:16.959Z,100556.19
2023-04-13T18:05:44.330Z,100561.59
2023-04-13T18:09:06.094Z,100572.66
2023-04-13T18:12:27.518Z,100576.00
2023-04-13T18:15:50.714Z,100581.03
2023-04-13T18:19:12.286Z,100592.25
2023-04-13T18:22:34.599Z,100588.94
2023-04-13T18:25:56.346Z,100594.31
2023-04-13T18:29:17.698Z,100593.38
2023-04-13T18:32:40.958Z,100591.44
2023-04-13T18:36:02.659Z,100594.16
2023-04-13T18:39:24.653Z,100597.69
2023-04-13T18:42:49.925Z,100595.91
2023-04-13T18:46:12.516Z,100597.75
2023-04-13T18:49:36.001Z,100612.91
2023-04-13T18:52:58.046Z,100612.09
2023-04-13T18:56:19.496Z,100624.44
2023-04-13T18:59:40.912Z,100623.34
2023-04-13T19:03:02.442Z,100631.34
2023-04-13T19:06:26.362Z,100635.13
2023-04-13T19:09:48.471Z,100640.28
2023-04-13T19:13:15.541Z,100645.34
2023-04-13T19:16:38.066Z,100660.06
2023-04-13T19:19:59.551Z,100659.06
2023-04-13T19:23:23.015Z,100673.91
2023-04-13T19:26:44.595Z,100677.97
2023-04-13T19:30:09.718Z,100683.13
2023-04-13T19:33:33.461Z,100687.19
2023-04-13T19:36:54.957Z,100697.09
2023-04-13T19:40:18.033Z,100707.84
2023-04-13T19:43:40.118Z,100710.44
2023-04-13T19:47:01.928Z,100721.88
2023-04-13T19:50:23.578Z,100731.47
2023-04-13T19:53:44.963Z,100719.91
2023-04-13T19:57:08.487Z,100718.97
2023-04-13T20:00:30.103Z,100724.56
2023-04-13T20:03:52.265Z,100726.06
2023-04-13T20:07:14.568Z,100733.69
2023-04-13T20:10:36.213Z,100735.31
2023-04-13T20:13:59.186Z,100733.13
2023-04-13T20:17:21.186Z,100745.41
2023-04-13T20:20:43.347Z,100747.72
2023-04-13T20:24:06.022Z,100742.03
2023-04-13T20:27:27.764Z,100745.09
2023-04-13T20:30:51.028Z,100734.81
2023-04-13T20:34:13.612Z,100730.59
2023-04-13T20:37:35.273Z,100739.78
2023-04-13T20:40:57.043Z,100726.97
2023-04-13T20:44:23.612Z,100737.28
2023-04-13T20:47:50.392Z,100730.50
2023-04-13T20:51:13.129Z,100723.25
2023-04-13T20:54:34.739Z,100720.50
2023-04-13T20:57:56.539Z,100720.50
2023-04-13T21:01:18.311Z,100712.31
2023-04-13T21:04:42.240Z,100710.13
2023-04-13T21:08:03.985Z,100706.03
2023-04-13T21:11:26.202Z,100702.50
2023-04-13T21:14:47.806Z,100708.94
2023-04-13T21:18:10.084Z,100710.84
2023-04-13T21:21:33.027Z,100707.44
2023-04-13T21:24:55.425Z,100701.31
2023-04-13T21:28:17.850Z,100691.75
2023-04-13T21:31:39.369Z,100699.97
2023-04-13T21:35:01.162Z,100697.56
2023-04-13T21:38:24.564Z,100694.19
2023-04-13T21:41:46.363Z,100691.75
2023-04-13T21:45:09.421Z,100684.03
2023-04-13T21:48:31.101Z,100685.25
2023-04-13T21:51:52.382Z,100681.22
2023-04-13T21:55:18.897Z,100689.41
2023-04-13T21:58:42.022Z,100689.91
2023-04-13T22:02:04.110Z,100693.75
2023-04-13T22:05:26.043Z,100687.09
2023-04-13T22:08:47.377Z,100681.28
2023-04-13T22:12:11.499Z,100690.69
2023-04-13T22:15:33.715Z,100687.88
2023-04-13T22:18:55.328Z,100687.63
2023-04-13T22:22:16.773Z,100695.41
2023-04-13T22:25:38.751Z,100697.78
2023-04-13T22:29:02.363Z,100702.81
2023-04-13T22:32:24.722Z,100708.81
2023-04-13T22:35:46.448Z,100706.72
2023-04-13T22:39:08.345Z,100715.13
2023-04-13T22:42:30.069Z,100714.78
2023-04-13T22:45:59.651Z,100714.63
2023-04-13T22:49:21.938Z,100722.16
2023-04-13T22:52:43.252Z,100726.09
2023-04-13T22:56:05.600Z,100741.59
2023-04-13T22:59:27.279Z,100739.16
2023-04-13T23:02:55.825Z,100731.31
2023-04-13T23:06:17.667Z,100735.78
2023-04-13T23:09:39.349Z,100720.19
2023-04-13T23:13:02.238Z,100719.47
2023-04-13T23:16:23.631Z,100728.25
2023-04-13T23:19:46.929Z,100718.50
2023-04-13T23:23:08.304Z,100727.41
2023-04-13T23:26:30.017Z,100717.66
2023-04-13T23:29:51.705Z,100707.06
2023-04-13T23:33:13.743Z,100715.72
2023-04-13T23:36:37.377Z,100713.94
2023-04-13T23:39:58.971Z,100712.78
2023-04-13T23:43:21.355Z,100688.84
2023-04-13T23:46:43.518Z,100686.06
2023-04-13T23:50:06.060Z,100682.38
2023-04-13T23:53:29.100Z,100675.25
2023-04-13T23:56:50.660Z,100685.75
